Time;durP1;ratioP1;P1;durP2;ratioP2;P2;SDS_P1;SDS_P2;PMS_P1;PMS_P2;Temp;Humidity;BMP_temperature;BMP_pressure;BME280_temperature;BME280_humidity;BME280_pressure;Samples;Min_cycle;Max_cycle;Signal;HPM_P1;HPM_P2
2024/04/01 00:00:31;;;;;;;47.47;25.27;;;;;;;11.32;82.35;96770.06;4980224;28;20037;-86
2024/04/01 00:02:57;;;;;;;45.58;25.00;;;;;;;10.53;82.50;96686.22;4996665;28;20038;-86
2024/04/01 00:05:22;;;;;;;44.80;26.58;;;;;;;11.13;83.07;96788.94;4994687;28;20453;-86
2024/04/01 00:07:50;;;;;;;55.75;26.30;;;;;;;10.61;82.54;96701.53;4979473;28;20446;-86
2024/04/01 00:10:15;;;;;;;45.10;25.73;;;;;;;11.07;82.94;96792.81;4997416;28;20045;-86
2024/04/01 00:12:40;;;;;;;54.95;27.13;;;;;;;11.04;82.84;96747.25;5013903;28;20037;-86
2024/04/01 00:15:06;;;;;;;44.75;27.48;;;;;;;11.19;82.61;96781.59;4996886;28;20378;-86
2024/04/01 00:17:32;;;;;;;45.10;26.38;;;;;;;10.91;82.25;96742.75;4996779;28;20026;-86
2024/04/01 00:19:57;;;;;;;44.10;27.33;;;;;;;10.91;82.76;96740.88;5008966;28;20034;-86
2024/04/01 00:22:22;;;;;;;50.08;26.77;;;;;;;10.73;82.75;96715.13;4960241;28;20026;-86
2024/04/01 00:24:48;;;;;;;44.92;27.17;;;;;;;10.56;82.52;96669.63;4996176;28;20038;-86
2024/04/01 00:27:14;;;;;;;48.15;26.63;;;;;;;10.80;81.99;96690.69;4996327;28;20421;-86
2024/04/01 00:29:39;;;;;;;51.35;27.92;;;;;;;11.23;82.32;96753.19;4996020;28;20030;-86
2024/04/01 00:32:05;;;;;;;50.60;27.88;;;;;;;11.15;82.49;96761.94;4995698;28;20029;-86
2024/04/01 00:34:30;;;;;;;48.38;27.90;;;;;;;11.13;82.59;96764.13;4992438;28;20036;-86
2024/04/01 00:36:55;;;;;;;46.20;26.85;;;;;;;10.82;83.23;96723.19;4996371;28;20061;-86
2024/04/01 00:39:21;;;;;;;54.65;28.33;;;;;;;10.81;82.69;96716.28;4996534;28;20037;-86
2024/04/01 00:41:46;;;;;;;55.13;30.33;;;;;;;11.09;82.76;96771.97;4980367;28;20516;-86
2024/04/01 00:44:12;;;;;;;53.67;27.73;;;;;;;10.95;82.97;96743.72;4984100;28;20046;-86
2024/04/01 00:46:38;;;;;;;43.38;28.13;;;;;;;10.87;83.20;96750.56;4983202;28;20120;-87
2024/04/01 00:49:04;;;;;;;53.60;29.65;;;;;;;11.29;81.89;96758.09;4994942;28;20501;-86
2024/04/01 00:51:30;;;;;;;52.30;27.75;;;;;;;10.90;82.09;96699.25;4980272;28;20398;-86
2024/04/01 00:53:56;;;;;;;47.20;27.98;;;;;;;11.03;82.66;96765.13;4997341;28;20026;-86
2024/04/01 00:56:25;;;;;;;48.50;26.15;;;;;;;11.21;82.56;96755.38;4979984;28;20553;-86
2024/04/01 00:58:53;;;;;;;43.05;25.77;;;;;;;10.72;81.59;96675.41;4964204;28;20702;-86
2024/04/01 01:01:20;;;;;;;46.08;26.85;;;;;;;10.60;81.76;96637.78;4974310;28;20030;-86
2024/04/01 01:03:45;;;;;;;47.75;26.20;;;;;;;10.80;81.89;96674.69;5009275;28;20375;-86
2024/04/01 01:06:14;;;;;;;46.78;27.25;;;;;;;11.15;81.96;96722.69;4983258;28;20041;-86
2024/04/01 01:08:41;;;;;;;49.65;26.13;;;;;;;10.64;82.25;96642.22;5016971;28;20057;-86
2024/04/01 01:11:07;;;;;;;55.28;29.77;;;;;;;10.49;83.04;96683.38;4983374;28;20038;-86
2024/04/01 01:13:32;;;;;;;42.53;26.83;;;;;;;9.60;87.43;96641.50;4983147;28;20057;-86
2024/04/01 01:15:58;;;;;;;46.40;27.42;;;;;;;10.83;84.16;96677.56;4991960;28;20080;-86
2024/04/01 01:18:23;;;;;;;43.25;26.30;;;;;;;10.81;82.55;96663.69;4998956;28;20033;-86
2024/04/01 01:20:49;;;;;;;49.75;27.60;;;;;;;10.48;84.15;96667.69;4998727;28;20026;-86
2024/04/01 01:23:14;;;;;;;39.92;26.60;;;;;;;10.67;83.12;96643.50;4977660;28;20033;-86
2024/04/01 01:25:39;;;;;;;45.38;26.65;;;;;;;10.76;82.26;96652.38;4963521;28;20033;-86
2024/04/01 01:28:08;;;;;;;46.78;27.17;;;;;;;10.69;82.34;96641.31;4982686;28;20025;-86
2024/04/01 01:30:35;;;;;;;52.90;26.83;;;;;;;10.90;82.47;96688.56;4999089;28;20032;-86
2024/04/01 01:33:03;;;;;;;47.22;27.25;;;;;;;10.91;82.27;96684.03;4999311;28;20084;-86
2024/04/01 01:35:29;;;;;;;48.75;28.20;;;;;;;10.90;82.25;96691.25;4998552;28;20021;-86
2024/04/01 01:37:55;;;;;;;53.17;26.40;;;;;;;10.91;82.64;96674.16;4998653;28;20114;-87
2024/04/01 01:40:21;;;;;;;59.75;31.35;;;;;;;10.54;82.99;96677.94;4991675;28;20057;-86
2024/04/01 01:42:47;;;;;;;44.72;26.42;;;;;;;10.88;82.92;96677.41;4996920;28;20450;-86
2024/04/01 01:45:13;;;;;;;45.75;25.90;;;;;;;10.88;82.90;96674.75;4962875;28;20070;-86
2024/04/01 01:47:38;;;;;;;41.72;25.42;;;;;;;10.88;82.74;96668.59;4996998;28;20033;-87
2024/04/01 01:50:05;;;;;;;39.10;25.88;;;;;;;10.63;82.47;96645.19;4978562;28;20049;-86
2024/04/01 01:52:31;;;;;;;55.03;27.90;;;;;;;10.50;82.64;96628.16;4963515;28;20126;-86
2024/04/01 01:54:57;;;;;;;47.58;26.65;;;;;;;10.64;82.82;96655.56;5006876;28;20108;-86
2024/04/01 01:57:23;;;;;;;46.53;26.60;;;;;;;10.64;82.69;96642.22;5006327;28;20030;-86
2024/04/01 01:59:48;;;;;;;51.05;27.73;;;;;;;10.84;83.08;96678.31;4963735;28;20545;-87
2024/04/01 02:02:15;;;;;;;42.70;26.75;;;;;;;10.61;83.13;96626.03;4962675;28;20035;-86
2024/04/01 02:04:40;;;;;;;49.72;27.90;;;;;;;10.92;82.77;96672.28;4978780;28;20394;-86
2024/04/01 02:07:06;;;;;;;50.13;27.92;;;;;;;10.87;82.52;96683.84;5002651;28;20029;-86
2024/04/01 02:09:32;;;;;;;46.58;26.60;;;;;;;10.67;84.04;96678.19;5007689;28;20092;-87
2024/04/01 02:11:59;;;;;;;46.30;26.63;;;;;;;10.78;83.58;96683.00;4986778;28;20022;-86
2024/04/01 02:14:24;;;;;;;50.25;27.75;;;;;;;10.41;83.26;96628.09;4978802;28;20058;-85
2024/04/01 02:16:50;;;;;;;44.65;26.20;;;;;;;10.53;83.93;96672.88;4996712;28;20650;-86
2024/04/01 02:19:15;;;;;;;43.47;27.40;;;;;;;10.75;84.32;96672.91;4979226;28;20038;-86
2024/04/01 02:21:44;;;;;;;49.28;29.80;;;;;;;10.41;83.97;96622.75;4979378;28;20037;-86
2024/04/01 02:24:10;;;;;;;51.53;29.15;;;;;;;10.20;83.85;96612.84;4967162;28;20501;-86
2024/04/01 02:26:36;;;;;;;49.97;28.98;;;;;;;10.88;83.70;96692.63;5011546;28;20115;-86
2024/04/01 02:29:01;;;;;;;43.55;27.17;;;;;;;10.31;83.28;96606.22;4981838;28;20504;-86
2024/04/01 02:31:26;;;;;;;64.80;30.75;;;;;;;10.03;84.60;96602.78;4965241;28;20046;-86
2024/04/01 02:33:52;;;;;;;44.67;27.30;;;;;;;10.06;87.36;96649.38;4982096;28;20385;-86
2024/04/01 02:36:17;;;;;;;69.57;34.95;;;;;;;9.86;90.90;96674.56;4964852;28;20126;-86
2024/04/01 02:38:49;;;;;;;43.05;26.88;;;;;;;10.29;89.50;96672.34;4974533;28;20022;-86
2024/04/01 02:41:14;;;;;;;44.75;27.20;;;;;;;10.73;84.98;96658.28;4983537;28;20068;-86
2024/04/01 02:43:40;;;;;;;60.58;31.13;;;;;;;10.60;84.98;96641.25;4982579;28;20022;-86
2024/04/01 02:46:05;;;;;;;70.65;34.72;;;;;;;9.76;91.62;96619.59;4998358;28;20050;-86
2024/04/01 02:48:31;;;;;;;67.45;38.22;;;;;;;9.21;97.32;96582.63;4984209;28;20402;-86
2024/04/01 02:50:56;;;;;;;68.03;35.40;;;;;;;9.15;98.63;96576.59;4980379;28;20026;-86
2024/04/01 02:53:22;;;;;;;72.95;37.28;;;;;;;9.30;97.43;96563.00;4982093;28;20029;-86
2024/04/01 02:55:47;;;;;;;44.97;28.67;;;;;;;9.49;94.16;96531.72;4988944;28;20026;-86
2024/04/01 02:58:12;;;;;;;62.85;34.40;;;;;;;9.58;93.66;96545.94;4982807;28;20041;-86
2024/04/01 03:00:38;;;;;;;50.10;30.50;;;;;;;9.65;92.62;96532.22;4982740;28;20410;-86
2024/04/01 03:03:03;;;;;;;76.18;37.13;;;;;;;9.12;95.30;96534.59;4999407;28;20385;-86
2024/04/01 03:05:29;;;;;;;73.60;42.33;;;;;;;9.01;95.58;96528.69;4966797;28;20410;-85
2024/04/01 03:07:55;;;;;;;77.55;40.78;;;;;;;8.53;97.38;96506.16;4978858;28;20033;-86
2024/04/01 03:10:20;;;;;;;86.60;43.58;;;;;;;8.92;97.24;96582.88;4963109;28;20174;-85
2024/04/01 03:12:47;;;;;;;47.38;28.95;;;;;;;9.67;93.94;96575.31;4996755;28;20053;-86
2024/04/01 03:15:21;;;;;;;49.13;28.98;;;;;;;10.23;87.11;96546.38;4979158;28;20386;-86
2024/04/01 03:17:47;;;;;;;50.50;28.35;;;;;;;10.68;85.41;96581.06;4978895;28;20030;-86
2024/04/01 03:20:13;;;;;;;48.25;27.52;;;;;;;10.70;84.78;96586.88;4987959;28;20133;-86
2024/04/01 03:22:40;;;;;;;54.72;30.25;;;;;;;10.68;84.55;96589.84;5015991;28;20080;-86
2024/04/01 03:25:05;;;;;;;45.72;29.63;;;;;;;9.89;84.79;96478.66;5016251;28;20406;-86
2024/04/01 03:27:31;;;;;;;49.60;30.02;;;;;;;10.60;84.11;96582.56;4999212;28;20096;-86
2024/04/01 03:29:57;;;;;;;73.28;37.42;;;;;;;9.20;89.12;96517.16;4998428;28;20029;-86
2024/04/01 03:32:22;;;;;;;61.80;34.75;;;;;;;8.92;93.86;96527.00;4999413;28;20029;-85
2024/04/01 03:34:51;;;;;;;55.97;30.55;;;;;;;9.81;89.85;96563.53;5013306;28;20382;-85
2024/04/01 03:37:16;;;;;;;44.85;29.45;;;;;;;10.35;86.17;96565.28;4996468;28;20033;-86
2024/04/01 03:39:46;;;;;;;46.05;28.63;;;;;;;10.42;84.96;96549.66;4962433;28;20486;-86
2024/04/01 03:42:12;;;;;;;53.60;30.95;;;;;;;10.67;84.60;96582.94;4996299;28;20530;-86
2024/04/01 03:44:38;;;;;;;51.35;29.35;;;;;;;10.47;84.26;96546.88;4978387;28;20491;-86
2024/04/01 03:47:03;;;;;;;60.38;35.58;;;;;;;10.00;84.95;96520.78;4982418;28;20030;-85
2024/04/01 03:49:29;;;;;;;55.10;29.42;;;;;;;10.43;85.54;96577.13;4982112;28;20034;-86
2024/04/01 03:51:54;;;;;;;69.78;35.67;;;;;;;9.40;89.85;96517.53;4979236;28;20073;-85
2024/04/01 03:54:21;;;;;;;55.38;34.22;;;;;;;9.45;92.22;96556.59;4979930;28;20050;-86
2024/04/01 03:56:46;;;;;;;51.40;28.73;;;;;;;10.26;87.15;96513.81;4978971;28;20034;-87
2024/04/01 03:59:12;;;;;;;67.63;34.85;;;;;;;9.58;89.50;96502.53;4996869;28;20046;-86
2024/04/01 04:01:37;;;;;;;74.32;36.08;;;;;;;9.36;92.50;96503.25;4960850;28;20028;-86
2024/04/01 04:04:03;;;;;;;68.45;34.45;;;;;;;9.33;92.24;96484.41;4979176;28;20045;-86
2024/04/01 04:06:28;;;;;;;76.07;36.45;;;;;;;9.20;93.45;96475.34;4962758;28;20034;-86
2024/04/01 04:08:53;;;;;;;62.60;36.05;;;;;;;9.23;94.62;96511.25;4962917;28;20478;-86
2024/04/01 04:11:19;;;;;;;70.18;38.28;;;;;;;8.28;98.93;96432.16;4979435;28;20034;-86
2024/04/01 04:13:44;;;;;;;67.90;41.70;;;;;;;8.68;99.97;96508.56;4963682;28;20058;-85
2024/04/01 04:16:10;;;;;;;70.22;41.92;;;;;;;8.56;100.00;96481.63;4998806;28;20026;-86
2024/04/01 04:18:35;;;;;;;43.20;31.17;;;;;;;8.80;95.59;96433.63;5002330;28;20104;-86
2024/04/01 04:21:01;;;;;;;47.10;30.45;;;;;;;9.76;91.05;96488.28;5003052;28;20041;-86
2024/04/01 04:23:28;;;;;;;45.55;29.55;;;;;;;10.41;86.92;96509.97;5002206;28;20049;-86
2024/04/01 04:25:56;;;;;;;46.67;26.70;;;;;;;10.32;85.66;96495.78;5002599;28;20029;-85
2024/04/01 04:28:21;;;;;;;42.90;28.05;;;;;;;10.52;85.67;96559.31;4982257;28;20053;-86
2024/04/01 04:30:47;;;;;;;53.80;29.35;;;;;;;10.44;86.21;96563.47;4973093;28;20490;-86
2024/04/01 04:33:12;;;;;;;59.28;31.40;;;;;;;10.28;86.52;96564.94;4966538;28;20528;-86
2024/04/01 04:35:37;;;;;;;53.88;30.55;;;;;;;10.51;85.75;96587.06;4982103;28;20034;-86
2024/04/01 04:38:03;;;;;;;51.80;29.52;;;;;;;10.38;86.63;96579.91;4990410;28;20445;-86
2024/04/01 04:40:28;;;;;;;51.78;28.77;;;;;;;10.14;88.11;96568.72;4981247;28;20034;-86
2024/04/01 04:42:54;;;;;;;65.63;37.33;;;;;;;9.09;90.36;96479.31;4985113;28;20025;-86
2024/04/01 04:45:23;;;;;;;50.92;31.70;;;;;;;9.75;90.35;96532.78;5000436;28;20460;-86
2024/04/01 04:47:52;;;;;;;42.67;28.30;;;;;;;10.36;86.24;96540.22;4984337;28;20029;-86
2024/04/01 04:50:18;;;;;;;43.67;29.73;;;;;;;10.54;85.46;96567.78;4999599;28;20091;-86
2024/04/01 04:52:43;;;;;;;67.68;38.80;;;;;;;9.53;91.23;96566.53;4990925;28;20030;-86
2024/04/01 04:55:09;;;;;;;48.28;30.90;;;;;;;10.04;90.30;96568.94;4982491;28;20022;-86
2024/04/01 04:57:35;;;;;;;55.15;30.13;;;;;;;10.22;86.56;96558.13;4997250;28;20042;-86
2024/04/01 05:00:01;;;;;;;69.20;42.28;;;;;;;9.14;94.13;96561.72;5014844;28;20037;-87
2024/04/01 05:02:26;;;;;;;50.58;31.77;;;;;;;9.34;93.09;96524.06;4980715;28;20122;-87
2024/04/01 05:04:52;;;;;;;52.35;31.67;;;;;;;10.48;87.44;96572.44;4967685;28;20026;-87
2024/04/01 05:07:17;;;;;;;54.92;31.63;;;;;;;10.35;86.29;96575.94;4990765;28;20121;-87
2024/04/01 05:09:42;;;;;;;78.93;37.75;;;;;;;9.23;93.81;96564.47;4969609;28;20030;-87
2024/04/01 05:12:08;;;;;;;76.25;44.67;;;;;;;8.86;98.75;96555.56;4963072;28;20014;-87
2024/04/01 05:14:33;;;;;;;66.93;40.78;;;;;;;8.59;100.00;96526.25;4993860;28;20469;-87
2024/04/01 05:16:59;;;;;;;78.72;44.92;;;;;;;8.87;98.24;96535.06;4977373;28;20030;-87
2024/04/01 05:19:24;;;;;;;80.55;47.72;;;;;;;8.22;99.63;96451.91;4979174;28;20030;-87
2024/04/01 05:21:50;;;;;;;49.75;33.53;;;;;;;9.45;96.34;96511.31;4977886;28;20038;-87
2024/04/01 05:24:16;;;;;;;56.15;33.60;;;;;;;9.57;90.16;96461.78;4986822;28;20404;-87
2024/04/01 05:26:42;;;;;;;59.97;34.45;;;;;;;9.77;91.38;96527.16;5009690;28;20088;-87
2024/04/01 05:29:08;;;;;;;45.60;29.52;;;;;;;10.14;89.01;96516.22;4995955;28;20087;-88
2024/04/01 05:31:34;;;;;;;48.40;29.75;;;;;;;10.46;86.74;96510.63;5013908;28;20474;-88
2024/04/01 05:33:59;;;;;;;55.83;36.28;;;;;;;9.83;86.37;96440.69;4996466;28;20025;-87
2024/04/01 05:36:27;;;;;;;74.72;43.92;;;;;;;9.28;94.22;96487.19;4975102;28;20366;-87
2024/04/01 05:38:53;;;;;;;73.95;48.42;;;;;;;8.67;98.33;96451.13;4993800;28;20639;-87
2024/04/01 05:41:19;;;;;;;57.60;35.95;;;;;;;8.75;97.56;96421.19;4993995;28;20023;-87
2024/04/01 05:43:45;;;;;;;68.82;41.97;;;;;;;9.02;92.18;96415.09;4976674;28;20290;-88
2024/04/01 05:46:10;;;;;;;75.97;46.92;;;;;;;9.00;98.67;96528.97;4994122;28;20037;-87
2024/04/01 05:48:36;;;;;;;55.70;37.50;;;;;;;9.17;98.38;96529.19;4977041;28;20462;-87
2024/04/01 05:51:01;;;;;;;76.45;42.88;;;;;;;9.96;90.48;96529.69;4967068;28;20106;-87
2024/04/01 05:53:27;;;;;;;84.53;50.13;;;;;;;8.80;99.51;96503.53;4987937;28;20037;-87
2024/04/01 05:55:52;;;;;;;55.65;36.35;;;;;;;9.36;98.69;96515.78;4971955;28;20034;-87
2024/04/01 05:58:18;;;;;;;54.55;33.60;;;;;;;9.73;90.21;96451.59;4995943;28;20519;-88
2024/04/01 06:00:43;;;;;;;75.90;46.03;;;;;;;9.47;94.45;96503.81;4995741;28;20489;-87
2024/04/01 06:03:09;;;;;;;50.58;34.90;;;;;;;9.10;95.01;96432.22;4996061;28;20026;-87
2024/04/01 06:05:34;;;;;;;71.72;41.70;;;;;;;10.00;90.16;96530.66;4995031;28;20045;-87
2024/04/01 06:08:00;;;;;;;51.13;33.38;;;;;;;9.85;93.42;96531.75;4987550;28;20401;-87
2024/04/01 06:10:26;;;;;;;55.10;33.88;;;;;;;10.34;87.80;96506.94;4995490;28;20029;-87
2024/04/01 06:12:55;;;;;;;70.38;42.22;;;;;;;9.42;93.83;96499.41;4963874;28;20117;-87
2024/04/01 06:15:21;;;;;;;52.75;32.55;;;;;;;9.89;87.91;96423.50;4996140;28;20037;-88
2024/04/01 06:17:48;;;;;;;55.97;34.75;;;;;;;10.17;86.88;96448.97;4979267;28;20084;-87
2024/04/01 06:20:13;;;;;;;51.80;33.35;;;;;;;10.53;86.95;96497.66;4973981;28;20040;-88
2024/04/01 06:22:39;;;;;;;44.45;31.05;;;;;;;10.50;86.55;96465.47;5003954;28;20033;-87
2024/04/01 06:25:05;;;;;;;52.30;32.97;;;;;;;10.14;86.06;96428.25;4986977;28;20022;-87
2024/04/01 06:27:31;;;;;;;47.88;33.45;;;;;;;10.12;86.28;96421.63;5012830;28;20040;-87
2024/04/01 06:29:56;;;;;;;55.35;34.40;;;;;;;9.90;86.54;96406.41;4995610;28;20638;-87
2024/04/01 06:32:22;;;;;;;52.72;35.05;;;;;;;10.42;86.64;96492.88;4995676;28;20034;-87
2024/04/01 06:34:47;;;;;;;49.75;34.90;;;;;;;10.42;86.87;96482.19;4977415;28;20030;-87
2024/04/01 06:37:13;;;;;;;71.72;39.63;;;;;;;9.86;90.93;96464.06;4977052;28;20107;-87
2024/04/01 06:39:38;;;;;;;69.93;40.15;;;;;;;9.75;93.96;96505.34;4993919;28;20031;-87
2024/04/01 06:42:04;;;;;;;82.20;41.05;;;;;;;9.81;93.26;96499.59;4976839;28;20041;-87
2024/04/01 06:44:30;;;;;;;66.65;40.40;;;;;;;9.58;96.70;96503.31;4960862;28;20494;-87
2024/04/01 06:46:55;;;;;;;78.25;41.75;;;;;;;9.31;99.24;96497.22;4968254;28;20038;-87
2024/04/01 06:49:21;;;;;;;75.75;45.50;;;;;;;9.38;100.00;96505.59;4988417;28;20076;-87
2024/04/01 06:51:46;;;;;;;57.60;36.35;;;;;;;9.67;97.96;96495.41;4996223;28;20421;-87
2024/04/01 06:54:11;;;;;;;52.92;33.97;;;;;;;10.41;89.55;96520.63;4995596;28;20113;-87
2024/04/01 06:56:37;;;;;;;46.88;31.58;;;;;;;9.99;87.03;96443.78;4995427;28;20033;-87
2024/04/01 06:59:02;;;;;;;53.47;31.73;;;;;;;9.98;87.61;96439.56;4979479;28;20034;-87
2024/04/01 07:01:29;;;;;;;55.92;36.33;;;;;;;10.57;87.30;96533.28;5011548;28;20501;-87
2024/04/01 07:03:54;;;;;;;53.17;33.85;;;;;;;10.35;89.47;96554.63;4976544;28;20402;-87
2024/04/01 07:06:19;;;;;;;83.25;40.42;;;;;;;10.16;92.01;96546.00;4959089;28;20041;-87
2024/04/01 07:08:45;;;;;;;49.33;32.15;;;;;;;9.82;89.24;96455.13;4958929;28;20085;-87
2024/04/01 07:11:10;;;;;;;50.88;33.47;;;;;;;10.42;88.42;96539.00;5002770;28;20030;-87
2024/04/01 07:13:35;;;;;;;58.78;36.03;;;;;;;9.91;93.62;96517.25;4991210;28;20371;-87
2024/04/01 07:16:01;;;;;;;50.63;33.65;;;;;;;10.63;88.63;96555.31;4994431;28;20030;-87
2024/04/01 07:18:28;;;;;;;50.95;32.30;;;;;;;10.35;86.88;96489.88;5011577;28;20076;-87
2024/04/01 07:20:53;;;;;;;57.33;38.38;;;;;;;10.03;88.97;96471.41;5012027;28;20109;-87
2024/04/01 07:23:19;;;;;;;48.65;32.20;;;;;;;10.39;90.43;96520.94;4993640;28;20117;-88
2024/04/01 07:25:45;;;;;;;76.68;44.20;;;;;;;9.30;98.15;96421.13;5000952;28;20096;-87
2024/04/01 07:28:10;;;;;;;78.13;45.80;;;;;;;9.23;100.00;96468.66;4969630;28;20394;-87
2024/04/01 07:30:36;;;;;;;48.60;34.65;;;;;;;10.41;91.45;96501.97;4975158;28;20030;-88
2024/04/01 07:33:01;;;;;;;60.90;39.83;;;;;;;10.27;91.40;96471.91;4982349;28;20113;-87
2024/04/01 07:35:27;;;;;;;52.53;35.65;;;;;;;10.24;93.16;96486.63;4974704;28;20026;-87
2024/04/01 07:37:52;;;;;;;51.95;34.65;;;;;;;10.51;90.32;96480.38;4974304;28;20058;-87
2024/04/01 07:40:17;;;;;;;51.08;35.05;;;;;;;10.20;90.98;96437.69;4977418;28;20069;-87
2024/04/01 07:42:45;;;;;;;70.40;39.88;;;;;;;9.33;97.56;96369.94;4993327;28;20041;-87
2024/04/01 07:45:14;;;;;;;65.10;40.53;;;;;;;9.78;100.00;96486.09;4987653;28;20030;-87
2024/04/01 07:47:40;;;;;;;71.93;45.42;;;;;;;9.20;100.00;96405.38;5008135;28;20113;-87
2024/04/01 07:50:06;;;;;;;81.07;44.85;;;;;;;9.83;100.00;96464.66;5011278;28;20712;-87
2024/04/01 07:52:31;;;;;;;55.90;34.20;;;;;;;10.10;96.78;96477.09;4993493;28;20116;-88
2024/04/01 07:55:00;;;;;;;49.50;31.85;;;;;;;10.55;89.97;96508.78;5011073;28;20126;-88
2024/04/01 07:57:30;;;;;;;43.05;29.85;;;;;;;10.61;89.04;96541.47;5006046;28;20053;-88
2024/04/01 07:59:56;;;;;;;55.25;30.98;;;;;;;10.34;91.90;96531.72;4988608;28;21183;-87
2024/04/01 08:02:22;;;;;;;53.90;35.05;;;;;;;10.25;92.65;96501.53;4993440;28;20026;-87
2024/04/01 08:04:48;;;;;;;47.50;34.15;;;;;;;10.32;91.89;96469.13;5010889;28;20040;-87
2024/04/01 08:07:14;;;;;;;74.45;38.85;;;;;;;10.05;94.01;96464.69;4993510;28;20030;-88
2024/04/01 08:09:40;;;;;;;52.75;34.03;;;;;;;9.73;95.06;96414.28;4993372;28;20030;-87
2024/04/01 08:12:05;;;;;;;48.85;32.80;;;;;;;10.41;89.97;96481.44;4993827;28;20129;-87
2024/04/01 08:14:33;;;;;;;56.00;31.40;;;;;;;10.32;89.43;96469.13;5010650;28;20436;-87
2024/04/01 08:16:58;;;;;;;52.35;30.63;;;;;;;10.42;88.85;96480.31;4985174;28;20029;-87
2024/04/01 08:19:25;;;;;;;70.03;37.50;;;;;;;10.44;91.05;96478.13;4993027;28;20088;-87
2024/04/01 08:21:51;;;;;;;55.95;32.35;;;;;;;10.67;89.05;96507.44;4992103;28;20371;-87
2024/04/01 08:24:16;;;;;;;49.97;32.20;;;;;;;10.32;91.24;96469.91;5010836;28;20040;-87
2024/04/01 08:26:42;;;;;;;63.78;31.80;;;;;;;10.67;89.72;96496.78;4960456;28;20034;-88
2024/04/01 08:29:07;;;;;;;59.67;34.03;;;;;;;10.51;92.21;96499.03;4967888;28;20405;-87
2024/04/01 08:31:32;;;;;;;57.60;34.10;;;;;;;10.40;95.48;96513.72;4993846;28;20061;-87
2024/04/01 08:33:58;;;;;;;54.67;33.72;;;;;;;10.01;98.78;96498.34;4993515;28;20030;-87
2024/04/01 08:36:23;;;;;;;52.45;32.78;;;;;;;9.86;93.82;96440.09;4977429;28;20037;-88
2024/04/01 08:38:48;;;;;;;53.80;32.80;;;;;;;10.10;91.04;96451.25;4977186;28;20036;-87
2024/04/01 08:41:38;;;;;;;76.65;37.95;;;;;;;10.40;92.45;96493.19;4993499;28;20035;-87
2024/04/01 08:44:12;;;;;;;78.82;45.13;;;;;;;10.20;96.57;96512.31;4989619;28;20026;-87
2024/04/01 08:46:44;;;;;;;63.25;37.42;;;;;;;9.39;99.33;96406.03;4989495;28;20120;-87
2024/04/01 08:49:11;;;;;;;50.90;31.27;;;;;;;10.59;91.99;96516.19;5003923;28;20032;-88
2024/04/01 08:51:38;;;;;;;46.20;31.23;;;;;;;10.53;90.76;96481.66;4977491;28;20033;-87
2024/04/01 08:54:05;;;;;;;82.25;43.35;;;;;;;10.41;95.76;96491.31;4989314;28;20406;-87
2024/04/01 08:56:31;;;;;;;76.13;44.35;;;;;;;9.96;100.00;96463.06;4986699;28;20038;-87
2024/04/01 08:58:57;;;;;;;68.40;42.67;;;;;;;9.95;98.55;96421.50;5001788;28;20520;-87
2024/04/01 09:01:23;;;;;;;53.65;32.05;;;;;;;10.60;91.95;96475.09;4976591;28;20030;-87
2024/04/01 09:03:53;;;;;;;52.15;32.05;;;;;;;10.99;90.47;96505.25;5004625;28;20104;-87
2024/04/01 09:06:19;;;;;;;70.53;46.58;;;;;;;10.30;98.56;96450.78;4994137;28;20152;-87
2024/04/01 09:08:46;;;;;;;77.03;47.83;;;;;;;10.07;100.00;96454.50;5005792;28;20026;-87
2024/04/01 09:11:14;;;;;;;82.28;54.28;;;;;;;10.19;100.00;96449.44;4994725;28;20030;-87
2024/04/01 09:13:40;;;;;;;84.03;49.55;;;;;;;10.43;100.00;96486.44;4977757;28;20084;-87
2024/04/01 09:16:07;;;;;;;61.80;42.97;;;;;;;10.42;100.00;96493.66;4996835;28;20025;-87
2024/04/01 09:18:36;;;;;;;76.43;49.25;;;;;;;10.39;100.00;96522.81;4980419;28;20026;-87
2024/04/01 09:21:06;;;;;;;59.42;38.00;;;;;;;10.41;100.00;96534.75;4996845;28;20079;-87
2024/04/01 09:23:40;;;;;;;56.70;34.50;;;;;;;10.63;97.27;96525.97;5013517;28;20034;-87
2024/04/01 09:26:06;;;;;;;68.65;39.53;;;;;;;10.91;92.32;96527.38;5006744;28;20049;-87
2024/04/01 09:28:32;;;;;;;49.63;35.80;;;;;;;10.64;94.79;96518.75;4996271;28;20310;-88
2024/04/01 09:30:57;;;;;;;54.25;35.33;;;;;;;10.87;92.12;96533.63;5013987;28;20034;-87
2024/04/01 09:33:27;;;;;;;68.07;45.80;;;;;;;10.84;92.29;96531.56;4980155;28;20418;-88
2024/04/01 09:35:53;;;;;;;78.90;48.60;;;;;;;10.20;99.15;96519.56;4980460;28;20083;-87
2024/04/01 09:38:18;;;;;;;86.28;51.08;;;;;;;10.05;100.00;96539.31;4979607;28;20120;-87
2024/04/01 09:40:56;;;;;;;66.25;43.78;;;;;;;10.09;100.00;96532.28;4979397;28;20074;-87
2024/04/01 09:43:26;;;;;;;83.05;53.15;;;;;;;9.91;100.00;96519.91;4994419;28;20037;-87
2024/04/01 09:45:52;;;;;;;54.13;36.40;;;;;;;10.47;98.08;96522.88;4994128;28;20037;-87
2024/04/01 09:48:21;;;;;;;52.20;34.72;;;;;;;10.68;91.71;96485.78;4976455;28;20045;-88
2024/04/01 09:50:49;;;;;;;57.25;33.28;;;;;;;11.14;89.07;96522.72;4996289;28;20044;-87
2024/04/01 09:53:18;;;;;;;61.15;40.47;;;;;;;10.94;88.52;96488.59;4995871;28;20022;-88
2024/04/01 09:56:06;;;;;;;50.53;35.33;;;;;;;11.24;88.94;96511.78;4995875;28;20038;-88
2024/04/01 09:58:56;;;;;;;46.85;34.03;;;;;;;11.07;88.87;96507.16;4985471;28;20121;-88
2024/04/01 10:01:59;;;;;;;48.40;31.08;;;;;;;11.09;88.62;96515.69;4995931;28;20025;-88
2024/04/01 10:04:43;;;;;;;44.63;32.70;;;;;;;11.11;88.77;96512.69;4995217;28;20030;-88
2024/04/01 10:07:24;;;;;;;54.15;34.30;;;;;;;10.93;89.47;96503.81;5005993;28;20056;-89
2024/04/01 10:10:21;;;;;;;61.05;38.03;;;;;;;10.70;91.56;96477.50;4995040;28;20036;-88
2024/04/01 10:13:35;;;;;;;56.15;34.83;;;;;;;10.97;89.97;96495.97;4961814;28;20048;-88
2024/04/01 10:16:22;;;;;;;63.50;36.65;;;;;;;10.94;90.12;96493.94;5011277;28;20028;-88
2024/04/01 10:19:09;;;;;;;54.90;37.00;;;;;;;10.85;91.42;96487.78;5011707;28;20087;-88
2024/04/01 10:21:53;;;;;;;55.33;38.13;;;;;;;10.83;91.21;96495.31;4978771;28;20033;-88
2024/04/01 10:24:27;;;;;;;57.83;36.80;;;;;;;10.81;92.35;96497.50;4975006;28;20437;-87
2024/04/01 10:27:08;;;;;;;58.92;36.13;;;;;;;10.79;91.66;96497.00;4992266;28;20034;-88
2024/04/01 10:29:52;;;;;;;75.85;41.75;;;;;;;10.63;94.59;96507.28;4992385;28;20490;-88
2024/04/01 10:32:39;;;;;;;51.90;38.33;;;;;;;10.63;94.94;96511.81;5005785;28;20482;-88
2024/04/01 10:35:26;;;;;;;57.65;35.20;;;;;;;10.72;93.51;96516.13;4991124;28;20543;-88
2024/04/01 10:38:16;;;;;;;60.22;37.42;;;;;;;10.67;93.03;96526.13;4974592;28;20026;-88
2024/04/01 10:41:06;;;;;;;60.97;36.08;;;;;;;10.89;90.54;96520.75;4974940;28;20033;-88
2024/04/01 10:44:00;;;;;;;55.08;36.42;;;;;;;10.69;92.67;96540.75;4995230;28;20030;-88
2024/04/01 10:46:40;;;;;;;55.58;37.53;;;;;;;10.66;94.03;96536.00;5002441;28;20490;-88
2024/04/01 10:49:34;;;;;;;53.25;36.40;;;;;;;10.57;95.00;96538.63;5007429;28;20130;-88
2024/04/01 10:52:05;;;;;;;49.53;33.28;;;;;;;10.71;93.44;96548.44;5006974;28;20040;-88
2024/04/01 10:54:52;;;;;;;48.53;34.92;;;;;;;10.57;96.30;96558.41;5004276;28;20057;-89
2024/04/01 10:57:41;;;;;;;45.00;33.78;;;;;;;10.59;96.31;96562.34;5009638;28;20025;-88
2024/04/01 11:00:44;;;;;;;46.97;33.88;;;;;;;11.11;90.66;96574.09;4974676;28;20489;-89
2024/04/01 11:03:35;;;;;;;50.70;34.38;;;;;;;11.03;90.56;96574.84;4988562;28;20159;-89
2024/04/01 11:06:35;;;;;;;52.60;34.42;;;;;;;10.79;93.83;96577.81;5002671;28;20293;-88
2024/04/01 11:09:29;;;;;;;45.45;32.20;;;;;;;10.89;90.90;96564.25;4911726;28;1189356;-88
2024/04/01 11:12:18;;;;;;;42.92;32.25;;;;;;;10.89;91.65;96592.81;4992755;28;20029;-89
2024/04/01 11:14:49;;;;;;;42.53;31.60;;;;;;;10.79;90.17;96567.16;4982873;28;20056;-89
2024/04/01 11:17:16;;;;;;;45.10;31.40;;;;;;;11.06;90.01;96611.59;4970663;28;20725;-89
2024/04/01 11:19:59;;;;;;;40.40;27.77;;;;;;;10.97;90.77;96613.41;4994769;28;20036;-88
2024/04/01 11:22:55;;;;;;;37.60;25.52;;;;;;;10.89;91.69;96614.16;4994325;28;20022;-88
2024/04/01 11:25:42;;;;;;;41.35;29.08;;;;;;;10.87;91.50;96619.00;4990518;28;20126;-88